Time;durP1;ratioP1;P1;durP2;ratioP2;P2;SDS_P1;SDS_P2;PMS_P1;PMS_P2;Temp;Humidity;BMP_temperature;BMP_pressure;BME280_temperature;BME280_humidity;BME280_pressure;Samples;Min_cycle;Max_cycle;Signal;HPM_P1;HPM_P2
2023/08/24 00:01:16;;;;;;;3.10;2.83;;;29.80;48.00;;;;;;5106063;27;45412;-73
2023/08/24 00:03:44;;;;;;;3.08;2.88;;;29.80;48.00;;;;;;5107096;27;45619;-74
2023/08/24 00:06:11;;;;;;;3.05;2.85;;;29.80;48.00;;;;;;5109948;27;45343;-74
2023/08/24 00:08:39;;;;;;;3.17;2.85;;;29.80;48.00;;;;;;5110001;27;45324;-73
2023/08/24 00:11:07;;;;;;;3.10;2.80;;;29.80;48.60;;;;;;5109724;27;45365;-73
2023/08/24 00:13:34;;;;;;;3.13;2.75;;;29.80;48.60;;;;;;5109697;27;45463;-73
2023/08/24 00:16:01;;;;;;;2.90;2.70;;;29.70;47.90;;;;;;5109362;27;45327;-74
2023/08/24 00:18:28;;;;;;;2.83;2.63;;;29.70;47.90;;;;;;5109622;27;45430;-73
2023/08/24 00:20:55;;;;;;;4.72;2.58;;;29.70;48.00;;;;;;5109658;27;45427;-73
2023/08/24 00:23:22;;;;;;;3.30;2.40;;;29.70;48.00;;;;;;5110457;27;45354;-73
2023/08/24 00:25:50;;;;;;;3.22;2.47;;;29.70;47.90;;;;;;5129859;27;45180;-73
2023/08/24 00:28:16;;;;;;;3.00;2.72;;;29.70;48.00;;;;;;5129972;27;45281;-73
2023/08/24 00:30:46;;;;;;;3.10;2.83;;;29.60;47.90;;;;;;5130210;27;45429;-73
2023/08/24 00:33:13;;;;;;;2.75;2.55;;;29.60;47.90;;;;;;5129891;27;47278;-73
2023/08/24 00:35:40;;;;;;;4.63;2.65;;;29.60;48.00;;;;;;5129178;27;45404;-73
2023/08/24 00:38:07;;;;;;;3.08;2.78;;;29.60;48.00;;;;;;5129772;27;45235;-73
2023/08/24 00:40:34;;;;;;;2.95;2.72;;;29.60;48.00;;;;;;5130049;27;45470;-73
2023/08/24 00:43:02;;;;;;;2.35;2.20;;;29.60;48.00;;;;;;5129636;27;45483;-73
2023/08/24 00:45:29;;;;;;;3.13;2.80;;;29.60;48.10;;;;;;5129237;27;45250;-73
2023/08/24 00:47:56;;;;;;;3.05;2.45;;;29.60;48.10;;;;;;5129577;27;45464;-73
2023/08/24 00:50:22;;;;;;;2.67;2.47;;;29.50;48.10;;;;;;5129997;27;45326;-73
2023/08/24 00:52:49;;;;;;;2.60;2.40;;;29.50;48.00;;;;;;5129854;27;47075;-73
2023/08/24 00:55:16;;;;;;;2.83;2.63;;;29.50;48.00;;;;;;5129259;27;45286;-74
2023/08/24 00:57:43;;;;;;;2.90;2.60;;;29.50;48.00;;;;;;5129613;27;45295;-73
2023/08/24 01:00:12;;;;;;;2.83;2.42;;;29.50;48.00;;;;;;5129841;27;45398;-73
2023/08/24 01:02:39;;;;;;;4.47;2.30;;;29.40;48.00;;;;;;5129102;27;45392;-73
2023/08/24 01:05:06;;;;;;;3.33;2.70;;;29.40;48.10;;;;;;5129119;27;45343;-73
2023/08/24 01:07:34;;;;;;;3.10;2.38;;;29.40;48.10;;;;;;5129164;27;45371;-73
2023/08/24 01:10:02;;;;;;;3.15;2.85;;;29.40;48.10;;;;;;5129263;27;45203;-73
2023/08/24 01:12:32;;;;;;;2.70;2.50;;;29.40;48.20;;;;;;5128986;27;46483;-73
2023/08/24 01:15:02;;;;;;;2.80;2.60;;;29.40;48.10;;;;;;5128969;27;45265;-73
2023/08/24 01:17:31;;;;;;;2.50;2.30;;;29.30;48.10;;;;;;5129609;27;45463;-74
2023/08/24 01:19:58;;;;;;;2.85;2.50;;;29.30;48.10;;;;;;5129567;27;45284;-73
2023/08/24 01:22:33;;;;;;;2.53;2.28;;;29.30;48.10;;;;;;5129271;27;45416;-73
2023/08/24 01:25:05;;;;;;;2.85;2.45;;;29.30;48.20;;;;;;5113982;27;45259;-73
2023/08/24 01:27:34;;;;;;;3.08;2.53;;;29.30;48.20;;;;;;5108197;27;45373;-72
2023/08/24 01:30:02;;;;;;;2.60;2.40;;;29.30;48.20;;;;;;5108148;27;45346;-73
2023/08/24 01:32:30;;;;;;;2.72;2.45;;;29.30;48.20;;;;;;5108252;27;45280;-73
2023/08/24 01:34:57;;;;;;;2.67;2.47;;;29.30;48.20;;;;;;5108506;27;45316;-73
2023/08/24 01:37:24;;;;;;;2.67;2.47;;;29.20;48.20;;;;;;5108389;27;45373;-73
2023/08/24 01:39:55;;;;;;;2.70;2.50;;;29.20;48.80;;;;;;5108689;27;45324;-73
2023/08/24 01:42:22;;;;;;;2.50;2.30;;;29.20;48.20;;;;;;5108262;27;45327;-73
2023/08/24 01:44:51;;;;;;;2.80;2.30;;;29.20;48.20;;;;;;5108273;27;45332;-73
2023/08/24 01:47:18;;;;;;;2.60;2.40;;;29.20;48.20;;;;;;5108062;27;45292;-72
2023/08/24 01:49:45;;;;;;;2.60;2.40;;;29.20;48.20;;;;;;5108646;27;45390;-73
2023/08/24 01:52:12;;;;;;;2.72;2.53;;;29.20;48.20;;;;;;5108079;27;45450;-73
2023/08/24 01:54:39;;;;;;;3.00;2.80;;;29.20;48.30;;;;;;5108083;27;45313;-73
2023/08/24 01:57:06;;;;;;;2.72;2.53;;;29.10;48.20;;;;;;5108015;27;45315;-73
2023/08/24 01:59:33;;;;;;;2.55;2.35;;;29.10;48.20;;;;;;5108326;27;45309;-73
2023/08/24 02:02:01;;;;;;;2.45;2.25;;;29.10;48.20;;;;;;5108083;27;46134;-73
2023/08/24 02:04:28;;;;;;;2.70;2.47;;;29.10;48.30;;;;;;5108194;27;45349;-73
2023/08/24 02:06:55;;;;;;;2.85;2.65;;;29.10;48.90;;;;;;5108091;27;45190;-73
2023/08/24 02:09:22;;;;;;;2.67;2.47;;;29.10;48.30;;;;;;5108367;27;45307;-73
2023/08/24 02:11:48;;;;;;;2.58;2.38;;;29.10;48.30;;;;;;5107626;27;46405;-73
2023/08/24 02:14:15;;;;;;;2.60;2.40;;;29.10;48.30;;;;;;5108145;27;45473;-73
2023/08/24 02:16:42;;;;;;;2.63;2.42;;;29.00;48.30;;;;;;5107176;27;45357;-73
2023/08/24 02:19:10;;;;;;;2.30;2.10;;;29.00;48.30;;;;;;5108034;27;45496;-73
2023/08/24 02:21:37;;;;;;;3.33;2.58;;;29.00;48.90;;;;;;5107440;27;46378;-72
2023/08/24 02:24:05;;;;;;;2.67;2.40;;;29.00;48.30;;;;;;5114723;27;45468;-73
2023/08/24 02:26:31;;;;;;;2.60;2.40;;;29.00;48.30;;;;;;5128391;27;45401;-73
2023/08/24 02:28:58;;;;;;;2.33;2.15;;;29.00;48.40;;;;;;5128579;27;45325;-72
2023/08/24 02:31:25;;;;;;;2.50;2.30;;;29.00;48.40;;;;;;5127973;27;45625;-73
2023/08/24 02:33:52;;;;;;;2.28;2.08;;;29.00;48.40;;;;;;5128204;27;45309;-72
2023/08/24 02:36:20;;;;;;;2.30;2.10;;;28.90;48.30;;;;;;5128184;27;45325;-72
2023/08/24 02:38:47;;;;;;;2.60;2.40;;;28.90;48.30;;;;;;5128429;27;45346;-73
2023/08/24 02:41:15;;;;;;;2.38;2.17;;;28.90;48.40;;;;;;5127914;27;46286;-73
2023/08/24 02:43:42;;;;;;;2.45;2.25;;;28.90;48.40;;;;;;5128157;27;45331;-72
2023/08/24 02:46:09;;;;;;;2.70;2.10;;;28.90;48.40;;;;;;5128172;27;45217;-72
2023/08/24 02:48:36;;;;;;;2.05;1.95;;;28.90;48.40;;;;;;5128328;27;45365;-73
2023/08/24 02:51:03;;;;;;;2.53;2.33;;;28.90;48.40;;;;;;5127861;27;46386;-73
2023/08/24 02:53:31;;;;;;;2.58;2.38;;;28.90;48.40;;;;;;5127989;27;45280;-73
2023/08/24 02:55:58;;;;;;;2.10;1.90;;;28.80;48.40;;;;;;5128104;27;45445;-72
2023/08/24 02:58:25;;;;;;;3.33;2.45;;;28.80;48.40;;;;;;5128083;27;45356;-72
2023/08/24 03:00:52;;;;;;;2.45;2.00;;;28.80;48.40;;;;;;5127823;27;46728;-71
2023/08/24 03:03:19;;;;;;;3.08;2.45;;;28.80;48.50;;;;;;5127067;27;45392;-72
2023/08/24 03:05:54;;;;;;;2.80;2.40;;;28.80;48.50;;;;;;5127677;27;45211;-72
2023/08/24 03:08:21;;;;;;;2.20;2.03;;;28.80;48.50;;;;;;5127957;27;45310;-72
2023/08/24 03:10:49;;;;;;;2.42;2.22;;;28.80;48.50;;;;;;5127677;27;46685;-72
2023/08/24 03:13:16;;;;;;;2.70;1.92;;;28.80;48.50;;;;;;5127558;27;45377;-73
2023/08/24 03:15:43;;;;;;;2.50;2.30;;;28.80;48.50;;;;;;5127888;27;45376;-72
2023/08/24 03:18:12;;;;;;;2.28;2.10;;;28.80;48.50;;;;;;5128083;27;45548;-72
2023/08/24 03:20:39;;;;;;;2.10;2.00;;;28.80;48.50;;;;;;5127762;27;46635;-72
2023/08/24 03:23:06;;;;;;;3.17;2.33;;;28.80;48.50;;;;;;5127516;27;45401;-72
2023/08/24 03:25:36;;;;;;;2.40;2.20;;;28.70;48.50;;;;;;5107590;27;45257;-72
2023/08/24 03:28:05;;;;;;;2.33;2.13;;;28.70;48.40;;;;;;5106967;27;45347;-72
2023/08/24 03:30:32;;;;;;;2.30;2.20;;;28.70;48.50;;;;;;5106776;27;45310;-73
2023/08/24 03:32:59;;;;;;;2.90;2.28;;;28.70;48.50;;;;;;5106849;27;45370;-72
2023/08/24 03:35:26;;;;;;;2.30;2.10;;;28.70;48.50;;;;;;5106908;27;45384;-72
2023/08/24 03:37:52;;;;;;;2.97;2.28;;;28.70;48.60;;;;;;5106890;27;45461;-72
2023/08/24 03:40:20;;;;;;;2.60;2.10;;;28.60;48.50;;;;;;5109793;27;45527;-72
2023/08/24 03:42:47;;;;;;;2.80;2.10;;;28.70;48.60;;;;;;5110181;27;45248;-72
2023/08/24 03:45:15;;;;;;;3.58;2.10;;;28.60;48.50;;;;;;5110325;27;45340;-72
2023/08/24 03:47:42;;;;;;;2.33;1.80;;;28.60;48.50;;;;;;5110377;27;45348;-71
2023/08/24 03:50:09;;;;;;;2.30;2.10;;;28.60;48.50;;;;;;5109713;27;46280;-71
2023/08/24 03:52:36;;;;;;;2.20;2.10;;;28.60;48.50;;;;;;5109390;27;45465;-71
2023/08/24 03:55:02;;;;;;;2.20;2.00;;;28.60;48.50;;;;;;5109996;27;45342;-72
2023/08/24 03:57:29;;;;;;;1.98;1.88;;;28.60;48.50;;;;;;5109645;27;45384;-72
2023/08/24 03:59:57;;;;;;;2.35;2.17;;;28.60;48.60;;;;;;5110076;27;46404;-72
2023/08/24 04:02:26;;;;;;;2.38;2.20;;;28.60;48.60;;;;;;5110180;27;45383;-72
2023/08/24 04:04:53;;;;;;;3.70;2.40;;;28.50;48.60;;;;;;5110118;27;45369;-73
2023/08/24 04:07:20;;;;;;;2.50;2.30;;;28.50;48.60;;;;;;5110073;27;45538;-72
2023/08/24 04:09:47;;;;;;;2.22;2.05;;;28.50;48.60;;;;;;5109812;27;45310;-72
2023/08/24 04:12:14;;;;;;;2.40;2.20;;;28.50;48.60;;;;;;5110293;27;45346;-72
2023/08/24 04:14:40;;;;;;;3.88;2.20;;;28.50;48.60;;;;;;5110123;27;45481;-72
2023/08/24 04:17:06;;;;;;;2.67;2.40;;;28.50;48.70;;;;;;5110446;27;45419;-72
2023/08/24 04:19:34;;;;;;;2.33;2.17;;;28.50;48.70;;;;;;5110195;27;46527;-72
2023/08/24 04:22:01;;;;;;;3.38;2.60;;;28.50;48.70;;;;;;5109831;27;45300;-72
2023/08/24 04:24:28;;;;;;;2.92;2.30;;;28.50;48.70;;;;;;5120450;27;45493;-74
2023/08/24 04:26:56;;;;;;;2.28;2.08;;;28.50;48.70;;;;;;5130246;27;45405;-72
2023/08/24 04:29:23;;;;;;;2.03;1.92;;;28.40;48.60;;;;;;5130065;27;46640;-72
2023/08/24 04:31:49;;;;;;;2.15;1.95;;;28.40;48.60;;;;;;5129803;27;45312;-71
2023/08/24 04:34:16;;;;;;;2.28;2.15;;;28.40;48.60;;;;;;5130262;27;44640;-71
2023/08/24 04:36:45;;;;;;;2.40;2.20;;;28.40;48.60;;;;;;5129939;27;45350;-72
2023/08/24 04:39:11;;;;;;;2.38;2.28;;;28.40;48.60;;;;;;5129224;27;46770;-72
2023/08/24 04:41:38;;;;;;;3.35;2.20;;;28.40;48.70;;;;;;5129867;27;45436;-72
2023/08/24 04:44:07;;;;;;;2.20;2.10;;;28.40;48.70;;;;;;5129798;27;45381;-72
2023/08/24 04:46:34;;;;;;;2.08;1.98;;;28.40;48.70;;;;;;5130172;27;45394;-72
2023/08/24 04:49:01;;;;;;;2.13;2.03;;;28.40;48.70;;;;;;5129391;27;45517;-72
2023/08/24 04:51:29;;;;;;;2.25;2.05;;;28.40;48.70;;;;;;5129456;27;45346;-72
2023/08/24 04:53:57;;;;;;;1.90;1.80;;;28.30;48.70;;;;;;5129836;27;45356;-72
2023/08/24 04:56:24;;;;;;;2.30;2.10;;;28.30;48.70;;;;;;5129374;27;45338;-73
2023/08/24 04:58:55;;;;;;;2.58;2.38;;;28.30;48.70;;;;;;5129408;27;45468;-72
2023/08/24 05:01:22;;;;;;;2.60;2.35;;;28.30;48.70;;;;;;5129384;27;45251;-72
2023/08/24 05:03:48;;;;;;;2.40;2.20;;;28.30;48.70;;;;;;5130339;27;45315;-72
2023/08/24 05:06:15;;;;;;;2.25;1.90;;;28.30;48.80;;;;;;5129669;27;45433;-72
2023/08/24 05:08:42;;;;;;;2.35;2.15;;;28.30;48.80;;;;;;5129522;27;45446;-72
2023/08/24 05:11:14;;;;;;;2.80;2.20;;;28.30;48.70;;;;;;5129376;27;45373;-72
2023/08/24 05:13:41;;;;;;;1.95;1.85;;;28.30;48.80;;;;;;5129727;27;45401;-72
2023/08/24 05:16:07;;;;;;;2.50;2.30;;;28.30;48.80;;;;;;5129690;27;45462;-73
2023/08/24 05:18:35;;;;;;;2.42;2.22;;;28.30;49.40;;;;;;5129234;27;45369;-72
2023/08/24 05:21:03;;;;;;;2.35;2.15;;;28.30;48.80;;;;;;5129471;27;45344;-72
2023/08/24 05:23:29;;;;;;;2.25;2.15;;;28.20;48.70;;;;;;5127042;27;45331;-72
2023/08/24 05:25:57;;;;;;;2.25;2.15;;;28.20;48.80;;;;;;5108112;27;45381;-70
2023/08/24 05:28:25;;;;;;;2.78;2.28;;;28.20;48.70;;;;;;5107776;27;45354;-73
2023/08/24 05:30:52;;;;;;;2.60;2.17;;;28.20;48.70;;;;;;5108183;27;45203;-73
2023/08/24 05:33:19;;;;;;;2.30;2.03;;;28.20;48.70;;;;;;5108649;27;45257;-72
2023/08/24 05:35:46;;;;;;;1.65;1.55;;;28.20;48.80;;;;;;5108689;27;45369;-72
2023/08/24 05:38:13;;;;;;;2.10;2.00;;;28.20;48.80;;;;;;5108743;27;45388;-73
2023/08/24 05:40:42;;;;;;;1.95;1.80;;;28.20;48.80;;;;;;5108467;27;45308;-72
2023/08/24 05:43:09;;;;;;;2.22;2.13;;;28.20;48.70;;;;;;5108355;27;45265;-73
2023/08/24 05:45:39;;;;;;;2.78;1.95;;;28.20;48.80;;;;;;5108387;27;45434;-72
2023/08/24 05:48:07;;;;;;;2.05;1.95;;;28.20;48.80;;;;;;5107989;27;45274;-73
2023/08/24 05:50:33;;;;;;;2.25;2.10;;;28.20;48.80;;;;;;5108213;27;45366;-72
2023/08/24 05:53:00;;;;;;;2.22;2.03;;;28.20;48.70;;;;;;5108167;27;45255;-72
2023/08/24 05:55:27;;;;;;;2.30;2.10;;;28.20;48.70;;;;;;5108336;27;45323;-71
2023/08/24 05:57:54;;;;;;;2.00;1.90;;;28.20;48.80;;;;;;5108062;27;46309;-72
2023/08/24 06:00:22;;;;;;;2.30;2.10;;;28.20;48.80;;;;;;5107981;27;45280;-72
2023/08/24 06:02:50;;;;;;;2.30;2.13;;;28.20;48.80;;;;;;5107187;27;45405;-72
2023/08/24 06:05:18;;;;;;;2.42;2.08;;;28.20;48.80;;;;;;5108262;27;45316;-72
2023/08/24 06:07:45;;;;;;;2.58;1.92;;;28.20;48.80;;;;;;5107750;27;46488;-72
2023/08/24 06:10:12;;;;;;;2.25;2.03;;;28.20;48.90;;;;;;5107972;27;45268;-72
2023/08/24 06:12:39;;;;;;;2.60;2.17;;;28.20;48.90;;;;;;5108083;27;45264;-72
2023/08/24 06:15:09;;;;;;;2.20;2.00;;;28.20;48.90;;;;;;5107190;27;45548;-72
2023/08/24 06:17:36;;;;;;;1.90;1.80;;;28.20;48.90;;;;;;5107600;27;46574;-72
2023/08/24 06:20:06;;;;;;;2.30;2.10;;;28.10;48.90;;;;;;5107846;27;45298;-72
2023/08/24 06:22:32;;;;;;;2.28;2.08;;;28.20;48.90;;;;;;5107615;27;45373;-72
2023/08/24 06:25:00;;;;;;;2.90;2.47;;;28.10;48.80;;;;;;5123027;27;45503;-72
2023/08/24 06:27:26;;;;;;;2.28;2.08;;;28.20;48.90;;;;;;5128141;27;45371;-72
2023/08/24 06:29:53;;;;;;;2.35;2.15;;;28.20;48.90;;;;;;5128310;27;45324;-72
2023/08/24 06:32:20;;;;;;;2.20;2.05;;;28.20;48.90;;;;;;5128486;27;45301;-72
2023/08/24 06:34:47;;;;;;;2.20;1.83;;;28.20;48.90;;;;;;5128608;27;45413;-72
2023/08/24 06:37:15;;;;;;;2.63;2.40;;;28.20;48.90;;;;;;5128178;27;46314;-71
2023/08/24 06:39:42;;;;;;;3.03;2.83;;;28.20;49.30;;;;;;5128209;27;45250;-72
2023/08/24 06:42:09;;;;;;;3.78;3.00;;;28.10;49.50;;;;;;5125545;27;45270;-71
2023/08/24 06:44:36;;;;;;;7.75;3.35;;;28.10;49.80;;;;;;5128093;27;45318;-71
2023/08/24 06:47:03;;;;;;;5.82;3.28;;;28.10;49.90;;;;;;5127437;27;45433;-71
2023/08/24 06:49:30;;;;;;;4.13;3.22;;;28.00;50.00;;;;;;5128058;27;45331;-71
2023/08/24 06:51:57;;;;;;;4.68;3.30;;;28.00;50.10;;;;;;5128214;27;45170;-71
2023/08/24 06:54:25;;;;;;;6.60;3.13;;;28.00;51.00;;;;;;5128374;27;45368;-71
2023/08/24 06:56:52;;;;;;;7.07;3.20;;;27.90;50.50;;;;;;5127263;27;45546;-71
2023/08/24 06:59:19;;;;;;;4.70;3.17;;;27.90;50.50;;;;;;5127699;27;45369;-72
2023/08/24 07:01:47;;;;;;;3.22;2.92;;;27.90;50.70;;;;;;5127531;27;45313;-71
2023/08/24 07:04:13;;;;;;;5.22;3.70;;;27.90;50.90;;;;;;5127204;27;45161;-72
2023/08/24 07:06:42;;;;;;;6.57;3.38;;;27.90;51.10;;;;;;5127663;27;46721;-72
2023/08/24 07:09:09;;;;;;;5.55;3.60;;;27.90;51.00;;;;;;5128072;27;45338;-72
2023/08/24 07:11:37;;;;;;;4.28;3.20;;;27.90;51.00;;;;;;5128108;27;45343;-72
2023/08/24 07:14:04;;;;;;;7.18;3.70;;;27.90;51.10;;;;;;5131257;27;45465;-72
2023/08/24 07:16:31;;;;;;;4.55;3.63;;;27.90;51.00;;;;;;5131288;27;45244;-71
2023/08/24 07:18:58;;;;;;;3.58;3.10;;;27.90;51.10;;;;;;5130794;27;45392;-72
2023/08/24 07:21:25;;;;;;;3.85;3.45;;;28.00;51.20;;;;;;5131600;27;45279;-72
2023/08/24 07:23:52;;;;;;;7.10;3.47;;;28.00;51.20;;;;;;5131354;27;45201;-72
2023/08/24 07:26:19;;;;;;;5.60;3.53;;;28.00;51.20;;;;;;5130997;27;45286;-72
2023/08/24 07:28:47;;;;;;;3.80;3.28;;;27.90;51.20;;;;;;5131076;27;45261;-72
2023/08/24 07:31:14;;;;;;;5.63;3.45;;;28.00;51.50;;;;;;5131229;27;45444;-72
2023/08/24 07:33:43;;;;;;;8.15;4.35;;;28.00;51.50;;;;;;5131134;27;45374;-73
2023/08/24 07:36:10;;;;;;;7.65;2.95;;;28.00;51.80;;;;;;5130570;27;45333;-74
2023/08/24 07:38:37;;;;;;;6.35;3.42;;;28.00;51.70;;;;;;5128343;27;45276;-73
2023/08/24 07:41:04;;;;;;;6.97;3.40;;;28.10;51.70;;;;;;5131104;27;45295;-73
2023/08/24 07:43:31;;;;;;;8.30;3.50;;;28.10;51.60;;;;;;5131118;27;45464;-72
2023/08/24 07:45:59;;;;;;;4.72;3.60;;;28.10;51.60;;;;;;5126513;27;45268;-72
2023/08/24 07:48:26;;;;;;;5.05;3.40;;;28.10;51.50;;;;;;5123668;27;45318;-72
2023/08/24 07:50:53;;;;;;;6.25;3.58;;;28.10;51.50;;;;;;5130952;27;45323;-71
2023/08/24 07:53:20;;;;;;;6.78;3.47;;;28.20;51.50;;;;;;5131105;27;45461;-72
2023/08/24 07:55:47;;;;;;;10.23;3.50;;;28.20;51.40;;;;;;5130241;27;46571;-72
2023/08/24 07:58:14;;;;;;;7.60;3.30;;;28.20;51.40;;;;;;5130670;27;45134;-73
2023/08/24 08:00:41;;;;;;;5.38;2.95;;;28.30;51.40;;;;;;5128478;27;45263;-72
2023/08/24 08:03:09;;;;;;;5.20;3.28;;;28.30;51.30;;;;;;5130780;27;45639;-72
2023/08/24 08:05:36;;;;;;;13.88;3.67;;;28.30;51.00;;;;;;5129865;27;46329;-71
2023/08/24 08:08:04;;;;;;;6.35;3.10;;;28.30;51.10;;;;;;5130338;27;45191;-72
2023/08/24 08:10:31;;;;;;;7.60;4.05;;;28.30;51.20;;;;;;5130101;27;45266;-72
2023/08/24 08:12:58;;;;;;;5.05;3.25;;;28.30;51.00;;;;;;5130387;27;45393;-71
2023/08/24 08:15:25;;;;;;;3.88;3.33;;;28.40;51.00;;;;;;5129993;27;46372;-71
2023/08/24 08:17:52;;;;;;;5.25;3.05;;;28.40;50.80;;;;;;5130152;27;45340;-71
2023/08/24 08:20:20;;;;;;;6.03;2.90;;;28.40;50.80;;;;;;5130366;27;45312;-71
2023/08/24 08:22:47;;;;;;;4.60;3.15;;;28.40;50.70;;;;;;5130574;27;45307;-72
2023/08/24 08:25:17;;;;;;;3.80;2.92;;;28.40;50.60;;;;;;5126953;27;45469;-71
2023/08/24 08:27:44;;;;;;;5.00;2.92;;;28.40;50.50;;;;;;5122386;27;45607;-71
2023/08/24 08:30:12;;;;;;;3.55;3.00;;;28.50;50.50;;;;;;5119494;27;45255;-71
2023/08/24 08:32:39;;;;;;;7.50;2.85;;;28.50;50.40;;;;;;5129348;27;45379;-71
2023/08/24 08:35:07;;;;;;;3.45;3.15;;;28.50;50.20;;;;;;5129051;27;46225;-71
2023/08/24 08:37:36;;;;;;;6.85;3.40;;;28.50;50.10;;;;;;5127377;27;45353;-71
2023/08/24 08:40:05;;;;;;;3.80;3.00;;;28.50;49.90;;;;;;5129775;27;45380;-71
2023/08/24 08:42:33;;;;;;;3.92;3.00;;;28.60;49.70;;;;;;5129902;27;45201;-71
2023/08/24 08:45:02;;;;;;;3.20;2.85;;;28.60;49.60;;;;;;5128279;27;47525;-71
2023/08/24 08:47:29;;;;;;;8.18;3.15;;;28.60;49.80;;;;;;5129180;27;45349;-70
2023/08/24 08:49:56;;;;;;;4.18;3.40;;;28.70;50.10;;;;;;5126855;27;45453;-69
2023/08/24 08:52:25;;;;;;;4.95;3.28;;;28.70;49.90;;;;;;5129734;27;45241;-69
2023/08/24 08:54:53;;;;;;;8.70;3.20;;;28.70;50.10;;;;;;5129408;27;45461;-69
2023/08/24 08:57:20;;;;;;;4.07;3.10;;;28.80;50.20;;;;;;5127657;27;45587;-70
2023/08/24 08:59:49;;;;;;;4.05;3.00;;;28.80;50.50;;;;;;5127869;27;45443;-70
2023/08/24 09:02:17;;;;;;;8.82;3.33;;;28.80;50.10;;;;;;5126483;27;45636;-70
2023/08/24 09:04:44;;;;;;;3.35;3.05;;;28.80;50.30;;;;;;5129121;27;46324;-70
2023/08/24 09:07:12;;;;;;;3.55;3.25;;;28.90;50.60;;;;;;5127869;27;45409;-70
2023/08/24 09:09:39;;;;;;;3.92;3.50;;;28.90;50.50;;;;;;5126947;27;45291;-70
2023/08/24 09:12:08;;;;;;;8.82;3.60;;;28.90;50.40;;;;;;5129770;27;45248;-70
2023/08/24 09:14:35;;;;;;;3.60;3.28;;;28.90;50.30;;;;;;5128060;27;45459;-70
2023/08/24 09:17:03;;;;;;;4.18;3.20;;;29.00;50.40;;;;;;5125722;27;45327;-70
2023/08/24 09:19:30;;;;;;;5.60;3.78;;;29.00;50.30;;;;;;5129398;27;45240;-70
2023/08/24 09:21:58;;;;;;;4.18;3.45;;;29.00;50.30;;;;;;5128974;27;45461;-70
2023/08/24 09:24:31;;;;;;;3.75;3.15;;;29.00;50.50;;;;;;5127056;27;45365;-71
2023/08/24 09:26:58;;;;;;;3.50;3.20;;;29.10;50.20;;;;;;5128440;27;45494;-70
2023/08/24 09:29:26;;;;;;;3.95;3.28;;;29.10;50.10;;;;;;5129302;27;45397;-69
2023/08/24 09:31:54;;;;;;;5.40;4.25;;;29.10;49.90;;;;;;5129202;27;45264;-69
2023/08/24 09:34:21;;;;;;;5.18;3.17;;;29.10;49.80;;;;;;5127757;27;45459;-70
2023/08/24 09:36:48;;;;;;;9.20;3.33;;;29.10;49.70;;;;;;5126442;27;46709;-69
2023/08/24 09:39:17;;;;;;;5.97;3.60;;;29.20;49.80;;;;;;5128898;27;45393;-71
2023/08/24 09:41:45;;;;;;;5.03;3.10;;;29.20;50.10;;;;;;5129269;27;45295;-70
2023/08/24 09:44:12;;;;;;;6.70;3.70;;;29.20;50.00;;;;;;5129249;27;46676;-71
2023/08/24 09:46:40;;;;;;;5.07;3.72;;;29.20;50.00;;;;;;5127497;27;45498;-70
2023/08/24 09:49:08;;;;;;;5.68;3.58;;;29.30;50.20;;;;;;5121236;27;45303;-69
2023/08/24 09:51:35;;;;;;;4.50;3.10;;;29.30;50.00;;;;;;5126397;27;45445;-71
2023/08/24 09:54:06;;;;;;;4.22;3.35;;;29.30;49.70;;;;;;5127198;27;45333;-72
2023/08/24 09:56:34;;;;;;;5.18;3.28;;;29.30;49.60;;;;;;5126529;27;45297;-72
2023/08/24 09:59:02;;;;;;;4.25;3.30;;;29.40;49.80;;;;;;5129067;27;45322;-72
2023/08/24 10:01:29;;;;;;;3.75;3.40;;;29.50;49.70;;;;;;5128901;27;45499;-71
2023/08/24 10:03:58;;;;;;;6.32;3.55;;;29.50;49.70;;;;;;5128507;27;46390;-71
2023/08/24 10:06:24;;;;;;;3.78;3.45;;;29.50;49.70;;;;;;5128129;27;45285;-71
2023/08/24 10:08:57;;;;;;;5.68;3.50;;;29.60;49.70;;;;;;5128536;27;45298;-70
2023/08/24 10:11:27;;;;;;;8.27;3.60;;;29.60;49.50;;;;;;5127594;27;45517;-70
2023/08/24 10:13:57;;;;;;;6.03;3.38;;;29.70;49.40;;;;;;5128244;27;46341;-70
2023/08/24 10:16:24;;;;;;;3.90;3.25;;;29.70;49.40;;;;;;5128243;27;45310;-71
2023/08/24 10:18:51;;;;;;;4.28;3.58;;;29.70;49.30;;;;;;5127748;27;45329;-72
2023/08/24 10:21:19;;;;;;;3.92;3.20;;;29.70;49.30;;;;;;5126522;27;45313;-71
2023/08/24 10:23:47;;;;;;;4.15;3.30;;;29.80;49.30;;;;;;5127035;27;45400;-71
2023/08/24 10:26:13;;;;;;;3.95;3.40;;;29.80;49.10;;;;;;5126077;27;45274;-71
2023/08/24 10:28:40;;;;;;;3.63;3.28;;;29.90;49.20;;;;;;5127796;27;45323;-71
2023/08/24 10:31:07;;;;;;;5.95;3.70;;;29.90;49.10;;;;;;5127309;27;45252;-72
2023/08/24 10:33:36;;;;;;;4.60;3.75;;;30.00;49.30;;;;;;5107851;27;46382;-73
2023/08/24 10:36:05;;;;;;;5.07;3.65;;;30.00;49.30;;;;;;5127420;27;45356;-70
2023/08/24 10:38:36;;;;;;;4.97;3.45;;;30.00;49.10;;;;;;5125981;27;45321;-71
2023/08/24 10:41:03;;;;;;;5.55;4.07;;;30.10;49.10;;;;;;5125328;27;45339;-72
2023/08/24 10:43:30;;;;;;;8.13;3.67;;;30.10;48.90;;;;;;5126976;27;45479;-72
2023/08/24 10:45:57;;;;;;;4.25;3.22;;;30.20;48.60;;;;;;5127708;27;45526;-72
2023/08/24 10:48:24;;;;;;;5.88;3.58;;;30.20;48.70;;;;;;5122791;27;45462;-72
2023/08/24 10:51:20;;;;;;;4.00;3.60;;;30.30;48.50;;;;;;5127957;27;45248;-72
2023/08/24 10:53:50;;;;;;;3.60;3.03;;;30.30;49.10;;;;;;5127956;27;47586;-72
2023/08/24 10:56:17;;;;;;;4.97;3.17;;;30.40;48.40;;;;;;5127189;27;45278;-72
2023/08/24 10:58:45;;;;;;;3.67;3.38;;;30.40;48.30;;;;;;5127720;27;45379;-72
2023/08/24 11:01:17;;;;;;;3.80;3.50;;;30.50;48.00;;;;;;5127892;27;45548;-71
2023/08/24 11:03:50;;;;;;;3.50;3.20;;;30.50;47.90;;;;;;5127476;27;45251;-72
2023/08/24 11:06:20;;;;;;;6.07;3.60;;;30.60;48.00;;;;;;5127445;27;45428;-71
2023/08/24 11:08:49;;;;;;;4.38;3.55;;;30.60;47.90;;;;;;5125449;27;45370;-72
2023/08/24 11:11:22;;;;;;;3.50;3.20;;;30.70;47.80;;;;;;5127689;27;45415;-71
2023/08/24 11:14:17;;;;;;;5.03;3.30;;;30.80;47.60;;;;;;5127403;27;45335;-71
2023/08/24 11:16:44;;;;;;;3.65;2.92;;;30.90;47.70;;;;;;5126699;27;45361;-71
2023/08/24 11:19:12;;;;;;;3.55;3.25;;;30.90;47.30;;;;;;5127363;27;45290;-71
2023/08/24 11:21:39;;;;;;;4.10;3.70;;;30.90;47.10;;;;;;5127851;27;45247;-71
2023/08/24 11:24:07;;;;;;;3.90;3.50;;;31.10;47.20;;;;;;5127054;27;46499;-70
2023/08/24 11:26:34;;;;;;;3.55;3.17;;;31.20;47.00;;;;;;5127179;27;45398;-70
2023/08/24 11:29:05;;;;;;;4.57;3.33;;;31.20;46.90;;;;;;5127407;27;45343;-70
2023/08/24 11:31:32;;;;;;;3.50;3.20;;;31.30;46.90;;;;;;5127649;27;45552;-70
2023/08/24 11:33:58;;;;;;;3.75;3.45;;;31.40;46.70;;;;;;5126389;27;46417;-70
2023/08/24 11:36:25;;;;;;;4.20;3.35;;;31.50;46.50;;;;;;5126788;27;45264;-70
2023/08/24 11:38:54;;;;;;;3.95;3.28;;;31.50;46.30;;;;;;5127171;27;45277;-70
2023/08/24 11:41:22;;;;;;;6.72;3.33;;;31.60;46.40;;;;;;5127488;27;45413;-70
2023/08/24 11:43:50;;;;;;;4.10;3.47;;;31.70;46.00;;;;;;5126983;27;47419;-70
2023/08/24 11:46:17;;;;;;;4.50;3.40;;;31.70;46.00;;;;;;5126835;27;45310;-70
2023/08/24 11:48:45;;;;;;;3.95;3.53;;;31.80;45.70;;;;;;5127076;27;45376;-70
2023/08/24 11:51:12;;;;;;;9.45;3.58;;;31.80;45.80;;;;;;5127116;27;45435;-70
2023/08/24 11:53:40;;;;;;;3.72;3.30;;;31.90;45.80;;;;;;5125354;27;45471;-70
2023/08/24 11:56:08;;;;;;;6.25;3.42;;;32.00;45.90;;;;;;5126302;27;45275;-71
2023/08/24 11:58:38;;;;;;;3.60;3.10;;;32.10;45.70;;;;;;5126007;27;45341;-70
2023/08/24 12:01:05;;;;;;;6.70;3.78;;;32.20;45.50;;;;;;5128782;27;45344;-69
2023/08/24 12:03:31;;;;;;;3.80;3.28;;;32.30;45.60;;;;;;5128412;27;47543;-72
2023/08/24 12:06:00;;;;;;;3.90;3.47;;;32.40;45.50;;;;;;5127997;27;45345;-70
2023/08/24 12:08:27;;;;;;;5.90;3.05;;;32.50;45.70;;;;;;5128624;27;45366;-70
2023/08/24 12:10:54;;;;;;;3.95;3.55;;;32.70;45.10;;;;;;5129587;27;45429;-72
2023/08/24 12:13:21;;;;;;;6.35;3.50;;;32.80;45.30;;;;;;5129994;27;46378;-69
2023/08/24 12:15:50;;;;;;;4.47;3.42;;;32.90;44.80;;;;;;5129459;27;45270;-70
2023/08/24 12:18:17;;;;;;;8.60;3.45;;;33.00;44.90;;;;;;5129019;27;45385;-72
2023/08/24 12:20:44;;;;;;;3.92;3.58;;;33.00;44.80;;;;;;5130135;27;45393;-71
2023/08/24 12:23:11;;;;;;;6.40;3.58;;;33.00;44.80;;;;;;5129324;27;45268;-70
2023/08/24 12:25:38;;;;;;;4.82;3.60;;;33.00;44.80;;;;;;5115251;27;45330;-71
2023/08/24 12:28:12;;;;;;;6.15;3.38;;;33.10;45.10;;;;;;5127761;27;45386;-71
2023/08/24 12:30:46;;;;;;;5.68;3.33;;;33.20;44.30;;;;;;5128387;27;45264;-70
2023/08/24 12:33:24;;;;;;;6.00;3.33;;;33.30;44.70;;;;;;5124194;27;46402;-71
2023/08/24 12:35:50;;;;;;;10.90;3.70;;;33.40;44.50;;;;;;5129557;27;45361;-71
2023/08/24 12:38:17;;;;;;;4.43;3.50;;;33.50;44.00;;;;;;5129709;27;45381;-71
2023/08/24 12:40:44;;;;;;;4.72;3.50;;;33.60;44.60;;;;;;5129973;27;45447;-73
2023/08/24 12:43:11;;;;;;;7.55;3.42;;;33.70;44.10;;;;;;5129502;27;46353;-73
2023/08/24 12:45:38;;;;;;;5.47;3.40;;;33.80;43.70;;;;;;5129519;27;45285;-74
2023/08/24 12:48:06;;;;;;;6.78;3.38;;;33.80;43.80;;;;;;5131039;27;45447;-74